sensor_id;sensor_type;location;lat;lon;timestamp;P1;durP1;ratioP1;P2;durP2;ratioP2
7875;SDS011;69649;53.712;9.680;2023-09-12T00:02:07;29.23;;;18.77;;
7875;SDS011;69649;53.712;9.680;2023-09-12T00:04:32;29.07;;;19.87;;
7875;SDS011;69649;53.712;9.680;2023-09-12T00:06:58;23.63;;;17.43;;
7875;SDS011;69649;53.712;9.680;2023-09-12T00:09:24;26.63;;;17.67;;
7875;SDS011;69649;53.712;9.680;2023-09-12T00:11:50;29.83;;;18.10;;
7875;SDS011;69649;53.712;9.680;2023-09-12T00:14:16;27.73;;;17.93;;
7875;SDS011;69649;53.712;9.680;2023-09-12T00:16:42;22.63;;;17.23;;
7875;SDS011;69649;53.712;9.680;2023-09-12T00:19:08;27.30;;;17.20;;
7875;SDS011;69649;53.712;9.680;2023-09-12T00:21:34;27.63;;;17.97;;
7875;SDS011;69649;53.712;9.680;2023-09-12T00:23:59;23.63;;;16.43;;
7875;SDS011;69649;53.712;9.680;2023-09-12T00:26:25;25.10;;;15.83;;
7875;SDS011;69649;53.712;9.680;2023-09-12T00:28:51;23.60;;;16.47;;
7875;SDS011;69649;53.712;9.680;2023-09-12T00:31:17;24.40;;;16.67;;
7875;SDS011;69649;53.712;9.680;2023-09-12T00:33:42;25.47;;;15.53;;
7875;SDS011;69649;53.712;9.680;2023-09-12T00:36:08;26.10;;;16.73;;
7875;SDS011;69649;53.712;9.680;2023-09-12T00:38:34;24.73;;;17.03;;
7875;SDS011;69649;53.712;9.680;2023-09-12T00:41:00;26.47;;;16.17;;
7875;SDS011;69649;53.712;9.680;2023-09-12T00:43:25;21.13;;;15.93;;
7875;SDS011;69649;53.712;9.680;2023-09-12T00:45:51;28.07;;;17.40;;
7875;SDS011;69649;53.712;9.680;2023-09-12T00:48:18;23.20;;;15.73;;
7875;SDS011;69649;53.712;9.680;2023-09-12T00:50:45;26.63;;;17.37;;
7875;SDS011;69649;53.712;9.680;2023-09-12T00:53:13;28.90;;;16.67;;
7875;SDS011;69649;53.712;9.680;2023-09-12T00:55:45;31.50;;;18.73;;
7875;SDS011;69649;53.712;9.680;2023-09-12T00:58:11;23.53;;;17.47;;
7875;SDS011;69649;53.712;9.680;2023-09-12T01:00:37;26.97;;;17.10;;
7875;SDS011;69649;53.712;9.680;2023-09-12T01:03:04;24.60;;;16.90;;
7875;SDS011;69649;53.712;9.680;2023-09-12T01:05:30;26.67;;;17.07;;
7875;SDS011;69649;53.712;9.680;2023-09-12T01:07:55;26.50;;;16.00;;
7875;SDS011;69649;53.712;9.680;2023-09-12T01:10:22;26.67;;;18.57;;
7875;SDS011;69649;53.712;9.680;2023-09-12T01:12:47;30.30;;;19.57;;
7875;SDS011;69649;53.712;9.680;2023-09-12T01:15:13;33.40;;;17.80;;
7875;SDS011;69649;53.712;9.680;2023-09-12T01:17:40;28.40;;;18.10;;
7875;SDS011;69649;53.712;9.680;2023-09-12T01:20:08;30.07;;;16.90;;
7875;SDS011;69649;53.712;9.680;2023-09-12T01:22:46;31.80;;;16.40;;
7875;SDS011;69649;53.712;9.680;2023-09-12T01:28:07;25.63;;;17.60;;
7875;SDS011;69649;53.712;9.680;2023-09-12T01:30:35;33.43;;;19.03;;
7875;SDS011;69649;53.712;9.680;2023-09-12T01:33:03;27.93;;;18.40;;
7875;SDS011;69649;53.712;9.680;2023-09-12T01:35:30;28.77;;;17.87;;
7875;SDS011;69649;53.712;9.680;2023-09-12T01:37:55;27.67;;;17.77;;
7875;SDS011;69649;53.712;9.680;2023-09-12T01:40:24;27.77;;;18.63;;
7875;SDS011;69649;53.712;9.680;2023-09-12T01:42:51;26.30;;;17.73;;
7875;SDS011;69649;53.712;9.680;2023-09-12T01:45:18;25.60;;;17.97;;
7875;SDS011;69649;53.712;9.680;2023-09-12T01:47:45;24.70;;;16.37;;
7875;SDS011;69649;53.712;9.680;2023-09-12T01:50:13;29.67;;;20.10;;
7875;SDS011;69649;53.712;9.680;2023-09-12T01:52:40;25.90;;;17.83;;
7875;SDS011;69649;53.712;9.680;2023-09-12T01:55:06;27.80;;;18.30;;
7875;SDS011;69649;53.712;9.680;2023-09-12T01:57:36;33.20;;;19.57;;
7875;SDS011;69649;53.712;9.680;2023-09-12T02:00:03;31.20;;;19.10;;
7875;SDS011;69649;53.712;9.680;2023-09-12T02:02:29;30.73;;;19.33;;
7875;SDS011;69649;53.712;9.680;2023-09-12T02:05:02;33.00;;;20.17;;
7875;SDS011;69649;53.712;9.680;2023-09-12T02:07:45;26.70;;;18.60;;
7875;SDS011;69649;53.712;9.680;2023-09-12T02:10:12;30.60;;;19.33;;
7875;SDS011;69649;53.712;9.680;2023-09-12T02:12:38;30.03;;;18.90;;
7875;SDS011;69649;53.712;9.680;2023-09-12T02:15:05;27.50;;;17.93;;
7875;SDS011;69649;53.712;9.680;2023-09-12T02:17:32;29.60;;;20.70;;
7875;SDS011;69649;53.712;9.680;2023-09-12T02:19:58;28.87;;;18.20;;
7875;SDS011;69649;53.712;9.680;2023-09-12T02:22:24;28.30;;;19.53;;
7875;SDS011;69649;53.712;9.680;2023-09-12T02:24:49;28.93;;;19.07;;
7875;SDS011;69649;53.712;9.680;2023-09-12T02:27:16;35.00;;;19.07;;
7875;SDS011;69649;53.712;9.680;2023-09-12T02:29:42;28.17;;;18.43;;
7875;SDS011;69649;53.712;9.680;2023-09-12T02:32:08;32.83;;;20.00;;
7875;SDS011;69649;53.712;9.680;2023-09-12T02:34:34;33.03;;;20.37;;
7875;SDS011;69649;53.712;9.680;2023-09-12T02:37:00;31.90;;;19.93;;
7875;SDS011;69649;53.712;9.680;2023-09-12T02:39:26;31.50;;;19.47;;
7875;SDS011;69649;53.712;9.680;2023-09-12T02:41:52;34.77;;;20.73;;
7875;SDS011;69649;53.712;9.680;2023-09-12T02:44:18;31.83;;;20.10;;
7875;SDS011;69649;53.712;9.680;2023-09-12T02:46:43;34.10;;;20.10;;
7875;SDS011;69649;53.712;9.680;2023-09-12T02:49:09;33.67;;;20.23;;
7875;SDS011;69649;53.712;9.680;2023-09-12T02:51:38;32.97;;;20.83;;
7875;SDS011;69649;53.712;9.680;2023-09-12T02:54:05;34.30;;;20.50;;
7875;SDS011;69649;53.712;9.680;2023-09-12T02:56:31;36.53;;;21.03;;
7875;SDS011;69649;53.712;9.680;2023-09-12T02:58:57;32.13;;;22.10;;
7875;SDS011;69649;53.712;9.680;2023-09-12T03:01:22;37.30;;;22.80;;
7875;SDS011;69649;53.712;9.680;2023-09-12T03:03:50;31.07;;;20.80;;
7875;SDS011;69649;53.712;9.680;2023-09-12T03:06:16;37.43;;;23.57;;
7875;SDS011;69649;53.712;9.680;2023-09-12T03:08:43;40.20;;;23.40;;
7875;SDS011;69649;53.712;9.680;2023-09-12T03:11:10;38.90;;;24.27;;
7875;SDS011;69649;53.712;9.680;2023-09-12T03:13:36;40.23;;;24.97;;
7875;SDS011;69649;53.712;9.680;2023-09-12T03:16:03;39.10;;;24.27;;
7875;SDS011;69649;53.712;9.680;2023-09-12T03:18:29;38.17;;;23.83;;
7875;SDS011;69649;53.712;9.680;2023-09-12T03:20:55;40.13;;;25.60;;
7875;SDS011;69649;53.712;9.680;2023-09-12T03:23:21;38.93;;;25.53;;
7875;SDS011;69649;53.712;9.680;2023-09-12T03:25:47;40.73;;;24.97;;
7875;SDS011;69649;53.712;9.680;2023-09-12T03:28:12;39.37;;;26.07;;
7875;SDS011;69649;53.712;9.680;2023-09-12T03:30:38;42.40;;;26.20;;
7875;SDS011;69649;53.712;9.680;2023-09-12T03:33:05;42.47;;;25.93;;
7875;SDS011;69649;53.712;9.680;2023-09-12T03:35:32;43.40;;;25.60;;
7875;SDS011;69649;53.712;9.680;2023-09-12T03:37:58;42.50;;;25.93;;
7875;SDS011;69649;53.712;9.680;2023-09-12T03:40:24;37.77;;;24.33;;
7875;SDS011;69649;53.712;9.680;2023-09-12T03:42:50;37.87;;;24.40;;
7875;SDS011;69649;53.712;9.680;2023-09-12T03:45:16;46.47;;;26.03;;
7875;SDS011;69649;53.712;9.680;2023-09-12T03:47:41;42.10;;;24.33;;
7875;SDS011;69649;53.712;9.680;2023-09-12T03:50:09;42.93;;;25.47;;
7875;SDS011;69649;53.712;9.680;2023-09-12T03:52:35;38.60;;;24.90;;
7875;SDS011;69649;53.712;9.680;2023-09-12T03:55:00;38.13;;;25.20;;
7875;SDS011;69649;53.712;9.680;2023-09-12T03:57:26;36.90;;;25.47;;
7875;SDS011;69649;53.712;9.680;2023-09-12T03:59:52;38.23;;;24.13;;
7875;SDS011;69649;53.712;9.680;2023-09-12T04:02:18;41.37;;;24.77;;
7875;SDS011;69649;53.712;9.680;2023-09-12T04:04:44;43.87;;;25.63;;
7875;SDS011;69649;53.712;9.680;2023-09-12T04:07:10;45.00;;;26.90;;
7875;SDS011;69649;53.712;9.680;2023-09-12T04:09:35;49.53;;;27.10;;
7875;SDS011;69649;53.712;9.680;2023-09-12T04:12:01;40.20;;;26.60;;
7875;SDS011;69649;53.712;9.680;2023-09-12T04:14:27;45.23;;;26.50;;
7875;SDS011;69649;53.712;9.680;2023-09-12T04:16:53;42.63;;;27.77;;
7875;SDS011;69649;53.712;9.680;2023-09-12T04:19:19;45.17;;;27.97;;
7875;SDS011;69649;53.712;9.680;2023-09-12T04:21:45;45.20;;;28.83;;
7875;SDS011;69649;53.712;9.680;2023-09-12T04:24:10;50.77;;;30.90;;
7875;SDS011;69649;53.712;9.680;2023-09-12T04:26:36;46.20;;;28.53;;
7875;SDS011;69649;53.712;9.680;2023-09-12T04:29:02;43.63;;;27.83;;
7875;SDS011;69649;53.712;9.680;2023-09-12T04:31:28;46.37;;;29.70;;
7875;SDS011;69649;53.712;9.680;2023-09-12T04:33:53;40.33;;;27.10;;
7875;SDS011;69649;53.712;9.680;2023-09-12T04:36:20;45.83;;;27.97;;
7875;SDS011;69649;53.712;9.680;2023-09-12T04:38:46;44.43;;;28.00;;
7875;SDS011;69649;53.712;9.680;2023-09-12T04:41:12;48.10;;;30.00;;
7875;SDS011;69649;53.712;9.680;2023-09-12T04:43:46;50.57;;;29.70;;
7875;SDS011;69649;53.712;9.680;2023-09-12T04:46:10;45.37;;;30.03;;
7875;SDS011;69649;53.712;9.680;2023-09-12T04:48:37;41.57;;;27.00;;
7875;SDS011;69649;53.712;9.680;2023-09-12T04:51:03;45.90;;;27.80;;
7875;SDS011;69649;53.712;9.680;2023-09-12T04:53:29;43.70;;;27.93;;
7875;SDS011;69649;53.712;9.680;2023-09-12T04:55:56;47.20;;;28.90;;
7875;SDS011;69649;53.712;9.680;2023-09-12T04:58:22;49.27;;;30.13;;
7875;SDS011;69649;53.712;9.680;2023-09-12T05:00:48;51.07;;;30.73;;
7875;SDS011;69649;53.712;9.680;2023-09-12T05:03:14;48.50;;;29.37;;
7875;SDS011;69649;53.712;9.680;2023-09-12T05:05:39;52.00;;;30.47;;
7875;SDS011;69649;53.712;9.680;2023-09-12T05:08:05;53.40;;;29.83;;
7875;SDS011;69649;53.712;9.680;2023-09-12T05:10:31;52.27;;;31.30;;
7875;SDS011;69649;53.712;9.680;2023-09-12T05:12:57;48.97;;;29.77;;
7875;SDS011;69649;53.712;9.680;2023-09-12T05:15:23;44.50;;;28.67;;
7875;SDS011;69649;53.712;9.680;2023-09-12T05:17:48;45.43;;;27.37;;
7875;SDS011;69649;53.712;9.680;2023-09-12T05:20:14;47.93;;;29.57;;
7875;SDS011;69649;53.712;9.680;2023-09-12T05:22:40;46.50;;;30.23;;
7875;SDS011;69649;53.712;9.680;2023-09-12T05:25:06;54.57;;;29.13;;
7875;SDS011;69649;53.712;9.680;2023-09-12T05:27:32;49.80;;;29.53;;
7875;SDS011;69649;53.712;9.680;2023-09-12T05:29:58;50.83;;;29.87;;
7875;SDS011;69649;53.712;9.680;2023-09-12T05:32:23;52.33;;;30.40;;
7875;SDS011;69649;53.712;9.680;2023-09-12T05:34:49;45.80;;;28.77;;
7875;SDS011;69649;53.712;9.680;2023-09-12T05:37:15;47.00;;;29.53;;
7875;SDS011;69649;53.712;9.680;2023-09-12T05:39:41;49.87;;;28.77;;
7875;SDS011;69649;53.712;9.680;2023-09-12T05:42:07;49.27;;;30.67;;
7875;SDS011;69649;53.712;9.680;2023-09-12T05:44:33;48.70;;;31.83;;
7875;SDS011;69649;53.712;9.680;2023-09-12T05:46:59;49.10;;;30.40;;
7875;SDS011;69649;53.712;9.680;2023-09-12T05:49:25;46.70;;;28.93;;
7875;SDS011;69649;53.712;9.680;2023-09-12T05:51:51;44.77;;;29.33;;
7875;SDS011;69649;53.712;9.680;2023-09-12T05:54:16;51.57;;;30.17;;
7875;SDS011;69649;53.712;9.680;2023-09-12T05:56:42;47.30;;;29.70;;
7875;SDS011;69649;53.712;9.680;2023-09-12T05:59:08;48.17;;;28.93;;
7875;SDS011;69649;53.712;9.680;2023-09-12T06:01:34;44.90;;;27.53;;
7875;SDS011;69649;53.712;9.680;2023-09-12T06:03:59;47.13;;;29.60;;
7875;SDS011;69649;53.712;9.680;2023-09-12T06:06:25;43.33;;;27.80;;
7875;SDS011;69649;53.712;9.680;2023-09-12T06:08:51;41.67;;;27.90;;
7875;SDS011;69649;53.712;9.680;2023-09-12T06:11:19;57.37;;;30.03;;
7875;SDS011;69649;53.712;9.680;2023-09-12T06:13:44;44.53;;;28.07;;
7875;SDS011;69649;53.712;9.680;2023-09-12T06:16:10;44.67;;;26.27;;
7875;SDS011;69649;53.712;9.680;2023-09-12T06:18:36;42.53;;;27.47;;
7875;SDS011;69649;53.712;9.680;2023-09-12T06:21:02;45.80;;;27.23;;
7875;SDS011;69649;53.712;9.680;2023-09-12T06:23:29;44.57;;;26.20;;
7875;SDS011;69649;53.712;9.680;2023-09-12T06:25:56;43.43;;;27.10;;
7875;SDS011;69649;53.712;9.680;2023-09-12T06:28:25;54.57;;;27.23;;
7875;SDS011;69649;53.712;9.680;2023-09-12T06:30:55;45.50;;;27.37;;
7875;SDS011;69649;53.712;9.680;2023-09-12T06:33:22;50.93;;;30.87;;
7875;SDS011;69649;53.712;9.680;2023-09-12T06:35:49;43.80;;;28.07;;
7875;SDS011;69649;53.712;9.680;2023-09-12T06:38:18;46.73;;;28.93;;
7875;SDS011;69649;53.712;9.680;2023-09-12T06:40:44;44.83;;;25.80;;
7875;SDS011;69649;53.712;9.680;2023-09-12T06:43:10;48.20;;;30.57;;
7875;SDS011;69649;53.712;9.680;2023-09-12T06:45:36;43.60;;;27.40;;
7875;SDS011;69649;53.712;9.680;2023-09-12T06:48:03;48.77;;;29.17;;
7875;SDS011;69649;53.712;9.680;2023-09-12T06:50:30;44.53;;;29.67;;
7875;SDS011;69649;53.712;9.680;2023-09-12T06:52:55;44.23;;;28.77;;
7875;SDS011;69649;53.712;9.680;2023-09-12T06:55:21;44.90;;;27.83;;
7875;SDS011;69649;53.712;9.680;2023-09-12T06:57:47;41.87;;;27.73;;
7875;SDS011;69649;53.712;9.680;2023-09-12T07:00:13;45.13;;;26.50;;
7875;SDS011;69649;53.712;9.680;2023-09-12T07:02:39;45.70;;;28.63;;
7875;SDS011;69649;53.712;9.680;2023-09-12T07:05:05;43.50;;;27.83;;
7875;SDS011;69649;53.712;9.680;2023-09-12T07:07:32;41.97;;;25.97;;
7875;SDS011;69649;53.712;9.680;2023-09-12T07:09:58;44.93;;;28.10;;
7875;SDS011;69649;53.712;9.680;2023-09-12T07:12:25;51.07;;;29.07;;
7875;SDS011;69649;53.712;9.680;2023-09-12T07:14:53;49.33;;;29.10;;
7875;SDS011;69649;53.712;9.680;2023-09-12T07:17:19;47.73;;;27.80;;
7875;SDS011;69649;53.712;9.680;2023-09-12T07:19:45;48.27;;;28.43;;
7875;SDS011;69649;53.712;9.680;2023-09-12T07:22:11;50.00;;;29.30;;
7875;SDS011;69649;53.712;9.680;2023-09-12T07:24:36;45.63;;;28.73;;
7875;SDS011;69649;53.712;9.680;2023-09-12T07:27:02;49.03;;;29.13;;
7875;SDS011;69649;53.712;9.680;2023-09-12T07:29:28;50.73;;;30.67;;
7875;SDS011;69649;53.712;9.680;2023-09-12T07:31:54;47.53;;;29.10;;
7875;SDS011;69649;53.712;9.680;2023-09-12T07:34:20;49.47;;;30.27;;
7875;SDS011;69649;53.712;9.680;2023-09-12T07:36:46;52.67;;;30.23;;
7875;SDS011;69649;53.712;9.680;2023-09-12T07:39:14;50.80;;;29.27;;
7875;SDS011;69649;53.712;9.680;2023-09-12T07:41:40;48.40;;;28.67;;
7875;SDS011;69649;53.712;9.680;2023-09-12T07:44:06;46.23;;;28.67;;
7875;SDS011;69649;53.712;9.680;2023-09-12T07:46:33;41.73;;;26.77;;
7875;SDS011;69649;53.712;9.680;2023-09-12T07:48:59;41.83;;;27.27;;
7875;SDS011;69649;53.712;9.680;2023-09-12T07:51:24;44.80;;;26.93;;
7875;SDS011;69649;53.712;9.680;2023-09-12T07:53:50;40.07;;;25.97;;
7875;SDS011;69649;53.712;9.680;2023-09-12T07:56:16;39.47;;;24.53;;
7875;SDS011;69649;53.712;9.680;2023-09-12T07:58:42;39.37;;;23.90;;
7875;SDS011;69649;53.712;9.680;2023-09-12T08:01:08;38.53;;;24.17;;
7875;SDS011;69649;53.712;9.680;2023-09-12T08:03:35;37.50;;;24.07;;
7875;SDS011;69649;53.712;9.680;2023-09-12T08:06:03;38.43;;;24.83;;
7875;SDS011;69649;53.712;9.680;2023-09-12T08:08:29;36.33;;;23.87;;
7875;SDS011;69649;53.712;9.680;2023-09-12T08:10:55;35.73;;;22.23;;
7875;SDS011;69649;53.712;9.680;2023-09-12T08:13:22;40.17;;;24.50;;
7875;SDS011;69649;53.712;9.680;2023-09-12T08:15:50;34.20;;;21.70;;
7875;SDS011;69649;53.712;9.680;2023-09-12T08:18:16;34.17;;;21.50;;
7875;SDS011;69649;53.712;9.680;2023-09-12T08:20:42;30.50;;;21.07;;
7875;SDS011;69649;53.712;9.680;2023-09-12T08:23:09;32.40;;;20.97;;
7875;SDS011;69649;53.712;9.680;2023-09-12T08:25:34;31.63;;;21.73;;
7875;SDS011;69649;53.712;9.680;2023-09-12T08:28:00;30.47;;;22.17;;
7875;SDS011;69649;53.712;9.680;2023-09-12T08:30:26;31.40;;;21.03;;
7875;SDS011;69649;53.712;9.680;2023-09-12T08:32:55;26.17;;;18.10;;
7875;SDS011;69649;53.712;9.680;2023-09-12T08:35:21;28.57;;;19.00;;
7875;SDS011;69649;53.712;9.680;2023-09-12T08:37:47;26.97;;;18.13;;
7875;SDS011;69649;53.712;9.680;2023-09-12T08:40:13;29.03;;;17.77;;
7875;SDS011;69649;53.712;9.680;2023-09-12T08:42:40;24.27;;;17.10;;
7875;SDS011;69649;53.712;9.680;2023-09-12T08:45:13;24.77;;;16.57;;
7875;SDS011;69649;53.712;9.680;2023-09-12T08:47:43;26.60;;;16.73;;
7875;SDS011;69649;53.712;9.680;2023-09-12T08:50:11;26.33;;;16.53;;
7875;SDS011;69649;53.712;9.680;2023-09-12T08:52:39;26.33;;;17.57;;
7875;SDS011;69649;53.712;9.680;2023-09-12T08:55:05;25.30;;;16.03;;
7875;SDS011;69649;53.712;9.680;2023-09-12T08:57:32;24.13;;;17.17;;
7875;SDS011;69649;53.712;9.680;2023-09-12T09:00:01;20.80;;;14.20;;
7875;SDS011;69649;53.712;9.680;2023-09-12T09:02:40;21.40;;;14.40;;
7875;SDS011;69649;53.712;9.680;2023-09-12T09:05:06;22.20;;;15.60;;
7875;SDS011;69649;53.712;9.680;2023-09-12T09:07:38;22.33;;;15.87;;
7875;SDS011;69649;53.712;9.680;2023-09-12T09:10:15;26.63;;;16.80;;
7875;SDS011;69649;53.712;9.680;2023-09-12T09:12:39;24.23;;;16.87;;
7875;SDS011;69649;53.712;9.680;2023-09-12T09:17:53;22.03;;;15.93;;
7875;SDS011;69649;53.712;9.680;2023-09-12T09:20:28;18.47;;;15.23;;
7875;SDS011;69649;53.712;9.680;2023-09-12T09:22:59;24.07;;;16.37;;
7875;SDS011;69649;53.712;9.680;2023-09-12T09:25:29;22.67;;;15.77;;
7875;SDS011;69649;53.712;9.680;2023-09-12T09:27:56;20.77;;;16.53;;
7875;SDS011;69649;53.712;9.680;2023-09-12T09:33:09;21.30;;;16.40;;
7875;SDS011;69649;53.712;9.680;2023-09-12T09:35:35;22.00;;;15.57;;
7875;SDS011;69649;53.712;9.680;2023-09-12T09:38:02;21.03;;;14.90;;
7875;SDS011;69649;53.712;9.680;2023-09-12T09:40:31;20.83;;;14.00;;
7875;SDS011;69649;53.712;9.680;2023-09-12T09:43:01;17.33;;;13.23;;
7875;SDS011;69649;53.712;9.680;2023-09-12T09:45:31;19.17;;;13.37;;
7875;SDS011;69649;53.712;9.680;2023-09-12T09:47:58;18.80;;;12.87;;
7875;SDS011;69649;53.712;9.680;2023-09-12T09:50:26;13.57;;;10.83;;
7875;SDS011;69649;53.712;9.680;2023-09-12T09:52:58;14.23;;;10.73;;
7875;SDS011;69649;53.712;9.680;2023-09-12T09:55:23;16.80;;;11.90;;
7875;SDS011;69649;53.712;9.680;2023-09-12T09:57:49;19.47;;;13.80;;
7875;SDS011;69649;53.712;9.680;2023-09-12T10:00:18;16.77;;;9.43;;
7875;SDS011;69649;53.712;9.680;2023-09-12T10:02:45;14.40;;;10.33;;
7875;SDS011;69649;53.712;9.680;2023-09-12T10:05:13;12.87;;;9.67;;
7875;SDS011;69649;53.712;9.680;2023-09-12T10:07:42;14.57;;;9.87;;
7875;SDS011;69649;53.712;9.680;2023-09-12T10:10:12;14.17;;;9.93;;
7875;SDS011;69649;53.712;9.680;2023-09-12T10:12:41;13.27;;;10.47;;
7875;SDS011;69649;53.712;9.680;2023-09-12T10:15:08;17.40;;;11.57;;
7875;SDS011;69649;53.712;9.680;2023-09-12T10:17:37;16.73;;;12.63;;
7875;SDS011;69649;53.712;9.680;2023-09-12T10:20:08;16.80;;;13.10;;
7875;SDS011;69649;53.712;9.680;2023-09-12T10:22:43;16.60;;;12.83;;
7875;SDS011;69649;53.712;9.680;2023-09-12T10:25:06;17.27;;;11.63;;
7875;SDS011;69649;53.712;9.680;2023-09-12T10:27:33;15.83;;;11.50;;
7875;SDS011;69649;53.712;9.680;2023-09-12T10:30:00;15.57;;;11.30;;
7875;SDS011;69649;53.712;9.680;2023-09-12T10:32:27;15.63;;;11.80;;
7875;SDS011;69649;53.712;9.680;2023-09-12T10:34:54;13.97;;;11.47;;
7875;SDS011;69649;53.712;9.680;2023-09-12T10:37:23;20.80;;;12.00;;
7875;SDS011;69649;53.712;9.680;2023-09-12T10:39:56;17.03;;;11.00;;
7875;SDS011;69649;53.712;9.680;2023-09-12T10:42:20;17.17;;;12.10;;
7875;SDS011;69649;53.712;9.680;2023-09-12T10:44:46;17.00;;;12.37;;
7875;SDS011;69649;53.712;9.680;2023-09-12T10:47:12;19.37;;;13.37;;
7875;SDS011;69649;53.712;9.680;2023-09-12T10:49:39;15.20;;;12.37;;
7875;SDS011;69649;53.712;9.680;2023-09-12T10:52:07;17.10;;;11.10;;
7875;SDS011;69649;53.712;9.680;2023-09-12T10:54:39;17.83;;;12.87;;
7875;SDS011;69649;53.712;9.680;2023-09-12T10:57:10;16.47;;;12.47;;
7875;SDS011;69649;53.712;9.680;2023-09-12T11:02:42;16.13;;;12.43;;
7875;SDS011;69649;53.712;9.680;2023-09-12T11:05:51;19.07;;;12.90;;
7875;SDS011;69649;53.712;9.680;2023-09-12T11:08:02;17.23;;;12.87;;
7875;SDS011;69649;53.712;9.680;2023-09-12T11:10:26;17.80;;;12.83;;
7875;SDS011;69649;53.712;9.680;2023-09-12T11:12:54;15.87;;;11.97;;
7875;SDS011;69649;53.712;9.680;2023-09-12T11:15:23;16.70;;;12.57;;
7875;SDS011;69649;53.712;9.680;2023-09-12T11:18:03;14.40;;;11.53;;
7875;SDS011;69649;53.712;9.680;2023-09-12T11:23:18;13.97;;;11.20;;
7875;SDS011;69649;53.712;9.680;2023-09-12T11:25:44;14.13;;;11.37;;
7875;SDS011;69649;53.712;9.680;2023-09-12T11:28:10;14.03;;;10.67;;
7875;SDS011;69649;53.712;9.680;2023-09-12T11:30:36;15.80;;;10.83;;
7875;SDS011;69649;53.712;9.680;2023-09-12T11:33:05;14.17;;;10.57;;
7875;SDS011;69649;53.712;9.680;2023-09-12T11:35:38;13.33;;;9.87;;
7875;SDS011;69649;53.712;9.680;2023-09-12T11:38:09;12.77;;;10.30;;
7875;SDS011;69649;53.712;9.680;2023-09-12T11:43:08;10.57;;;9.13;;
7875;SDS011;69649;53.712;9.680;2023-09-12T11:45:39;11.60;;;8.50;;
7875;SDS011;69649;53.712;9.680;2023-09-12T11:48:08;11.73;;;8.60;;
7875;SDS011;69649;53.712;9.680;2023-09-12T11:50:35;10.97;;;8.90;;
7875;SDS011;69649;53.712;9.680;2023-09-12T11:53:03;13.87;;;9.50;;
7875;SDS011;69649;53.712;9.680;2023-09-12T11:56:17;13.00;;;8.53;;
7875;SDS011;69649;53.712;9.680;2023-09-12T11:58:10;14.63;;;9.57;;
7875;SDS011;69649;53.712;9.680;2023-09-12T12:00:51;13.40;;;10.93;;
7875;SDS011;69649;53.712;9.680;2023-09-12T12:03:19;15.57;;;10.37;;
7875;SDS011;69649;53.712;9.680;2023-09-12T12:05:47;12.37;;;9.73;;
7875;SDS011;69649;53.712;9.680;2023-09-12T12:08:13;13.67;;;10.50;;
7875;SDS011;69649;53.712;9.680;2023-09-12T12:10:40;15.40;;;10.27;;
7875;SDS011;69649;53.712;9.680;2023-09-12T12:13:09;14.00;;;10.57;;
7875;SDS011;69649;53.712;9.680;2023-09-12T12:15:37;13.93;;;11.47;;
7875;SDS011;69649;53.712;9.680;2023-09-12T12:18:03;16.67;;;11.17;;
7875;SDS011;69649;53.712;9.680;2023-09-12T12:20:29;14.80;;;11.00;;
7875;SDS011;69649;53.712;9.680;2023-09-12T12:22:55;14.73;;;9.97;;
7875;SDS011;69649;53.712;9.680;2023-09-12T12:25:21;14.77;;;11.13;;
7875;SDS011;69649;53.712;9.680;2023-09-12T12:27:47;20.07;;;11.50;;
7875;SDS011;69649;53.712;9.680;2023-09-12T12:30:14;15.13;;;11.17;;
7875;SDS011;69649;53.712;9.680;2023-09-12T12:32:40;13.73;;;10.67;;
7875;SDS011;69649;53.712;9.680;2023-09-12T12:35:07;13.87;;;10.63;;
7875;SDS011;69649;53.712;9.680;2023-09-12T12:37:35;14.37;;;11.03;;
7875;SDS011;69649;53.712;9.680;2023-09-12T12:40:02;15.60;;;11.90;;
7875;SDS011;69649;53.712;9.680;2023-09-12T12:42:33;16.27;;;11.63;;
7875;SDS011;69649;53.712;9.680;2023-09-12T12:45:00;18.23;;;12.77;;
7875;SDS011;69649;53.712;9.680;2023-09-12T12:47:26;16.67;;;12.03;;
7875;SDS011;69649;53.712;9.680;2023-09-12T12:49:53;17.47;;;12.33;;
7875;SDS011;69649;53.712;9.680;2023-09-12T12:52:22;14.33;;;11.80;;
7875;SDS011;69649;53.712;9.680;2023-09-12T12:54:49;13.73;;;11.80;;
7875;SDS011;69649;53.712;9.680;2023-09-12T12:57:21;14.40;;;12.27;;
7875;SDS011;69649;53.712;9.680;2023-09-12T12:59:48;17.80;;;12.50;;
7875;SDS011;69649;53.712;9.680;2023-09-12T13:02:20;18.80;;;13.30;;
7875;SDS011;69649;53.712;9.680;2023-09-12T13:04:46;17.80;;;13.47;;
7875;SDS011;69649;53.712;9.680;2023-09-12T13:07:12;18.73;;;12.43;;
7875;SDS011;69649;53.712;9.680;2023-09-12T13:09:38;15.18;;;12.63;;
7875;SDS011;69649;53.712;9.680;2023-09-12T13:12:04;18.70;;;13.67;;
7875;SDS011;69649;53.712;9.680;2023-09-12T13:14:31;16.90;;;11.90;;
7875;SDS011;69649;53.712;9.680;2023-09-12T13:16:57;16.55;;;12.58;;
7875;SDS011;69649;53.712;9.680;2023-09-12T13:19:25;15.17;;;11.77;;
7875;SDS011;69649;53.712;9.680;2023-09-12T13:21:54;14.37;;;11.27;;
7875;SDS011;69649;53.712;9.680;2023-09-12T13:24:20;13.68;;;11.35;;
7875;SDS011;69649;53.712;9.680;2023-09-12T13:26:45;13.03;;;10.90;;
7875;SDS011;69649;53.712;9.680;2023-09-12T13:29:11;13.20;;;10.80;;
7875;SDS011;69649;53.712;9.680;2023-09-12T13:31:37;14.93;;;12.68;;
7875;SDS011;69649;53.712;9.680;2023-09-12T13:34:03;14.07;;;11.80;;
7875;SDS011;69649;53.712;9.680;2023-09-12T13:36:28;15.90;;;10.68;;
7875;SDS011;69649;53.712;9.680;2023-09-12T13:38:54;15.87;;;11.63;;
7875;SDS011;69649;53.712;9.680;2023-09-12T13:41:21;16.73;;;12.10;;
7875;SDS011;69649;53.712;9.680;2023-09-12T13:43:48;14.97;;;11.70;;
7875;SDS011;69649;53.712;9.680;2023-09-12T13:46:14;17.57;;;12.68;;
7875;SDS011;69649;53.712;9.680;2023-09-12T13:48:41;18.27;;;14.43;;
7875;SDS011;69649;53.712;9.680;2023-09-12T13:51:07;16.27;;;12.53;;
7875;SDS011;69649;53.712;9.680;2023-09-12T13:53:33;18.02;;;13.30;;
7875;SDS011;69649;53.712;9.680;2023-09-12T13:55:59;16.93;;;13.70;;
7875;SDS011;69649;53.712;9.680;2023-09-12T13:58:26;18.17;;;14.28;;
7875;SDS011;69649;53.712;9.680;2023-09-12T14:00:52;15.95;;;13.65;;
7875;SDS011;69649;53.712;9.680;2023-09-12T14:03:18;17.90;;;14.63;;
7875;SDS011;69649;53.712;9.680;2023-09-12T14:05:43;15.23;;;13.35;;
7875;SDS011;69649;53.712;9.680;2023-09-12T14:08:09;16.93;;;14.30;;
7875;SDS011;69649;53.712;9.680;2023-09-12T14:10:35;22.80;;;15.03;;
7875;SDS011;69649;53.712;9.680;2023-09-12T14:13:01;16.75;;;13.53;;
7875;SDS011;69649;53.712;9.680;2023-09-12T14:15:26;15.03;;;12.80;;
7875;SDS011;69649;53.712;9.680;2023-09-12T14:17:52;15.73;;;13.87;;
7875;SDS011;69649;53.712;9.680;2023-09-12T14:20:18;19.20;;;13.78;;
7875;SDS011;69649;53.712;9.680;2023-09-12T14:22:44;17.07;;;14.13;;
7875;SDS011;69649;53.712;9.680;2023-09-12T14:25:10;18.20;;;13.80;;
7875;SDS011;69649;53.712;9.680;2023-09-12T14:27:43;19.10;;;14.30;;
7875;SDS011;69649;53.712;9.680;2023-09-12T14:30:13;16.47;;;13.57;;
7875;SDS011;69649;53.712;9.680;2023-09-12T14:32:39;17.20;;;13.37;;
7875;SDS011;69649;53.712;9.680;2023-09-12T14:35:05;18.50;;;14.43;;
7875;SDS011;69649;53.712;9.680;2023-09-12T14:37:32;17.90;;;14.33;;
7875;SDS011;69649;53.712;9.680;2023-09-12T14:40:03;19.23;;;17.02;;
7875;SDS011;69649;53.712;9.680;2023-09-12T14:42:30;16.10;;;13.68;;
7875;SDS011;69649;53.712;9.680;2023-09-12T14:44:56;19.80;;;14.33;;
7875;SDS011;69649;53.712;9.680;2023-09-12T14:47:22;16.33;;;14.10;;
7875;SDS011;69649;53.712;9.680;2023-09-12T14:49:48;18.85;;;15.48;;
7875;SDS011;69649;53.712;9.680;2023-09-12T14:52:13;16.25;;;14.15;;